createdAt,value
2022-09-25T00:00:24.119Z,14.88
2022-09-25T00:03:13.700Z,15.75
2022-09-25T00:06:03.521Z,15.90
2022-09-25T00:08:52.929Z,16.42
2022-09-25T00:11:42.067Z,18.48
2022-09-25T00:14:31.556Z,19.35
2022-09-25T00:17:21.983Z,19.08
2022-09-25T00:20:11.375Z,22.23
2022-09-25T00:23:02.663Z,20.90
2022-09-25T00:25:56.490Z,20.90
2022-09-25T00:28:45.618Z,23.40
2022-09-25T00:31:35.174Z,24.65
2022-09-25T00:34:25.767Z,22.67
2022-09-25T00:37:15.013Z,24.63
2022-09-25T00:40:04.135Z,22.17
2022-09-25T00:42:53.197Z,21.75
2022-09-25T00:45:42.344Z,21.42
2022-09-25T00:48:32.409Z,22.23
2022-09-25T00:51:29.854Z,26.25
2022-09-25T00:54:27.353Z,21.48
2022-09-25T00:57:19.704Z,27.13
2022-09-25T01:00:13.220Z,23.63
2022-09-25T01:03:03.435Z,23.90
2022-09-25T01:05:52.998Z,22.48
2022-09-25T01:08:44.362Z,24.60
2022-09-25T01:11:33.529Z,21.55
2022-09-25T01:14:22.809Z,24.35
2022-09-25T01:17:19.163Z,24.30
2022-09-25T01:20:22.485Z,21.70
2022-09-25T01:23:22.259Z,24.63
2022-09-25T01:26:31.599Z,23.92
2022-09-25T01:29:28.520Z,21.73
2022-09-25T01:32:22.318Z,22.95
2022-09-25T01:35:19.637Z,23.45
2022-09-25T01:38:16.515Z,23.40
2022-09-25T01:41:13.189Z,21.67
2022-09-25T01:44:07.944Z,24.95
2022-09-25T01:47:09.414Z,24.75
2022-09-25T01:50:01.944Z,26.77
2022-09-25T01:52:54.534Z,22.10
2022-09-25T01:55:47.780Z,22.70
2022-09-25T01:58:42.365Z,23.85
2022-09-25T02:01:35.682Z,21.30
2022-09-25T02:04:30.474Z,26.65
2022-09-25T02:07:25.405Z,23.42
2022-09-25T02:10:19.219Z,22.88
2022-09-25T02:13:13.313Z,24.42
2022-09-25T02:16:06.446Z,24.17
2022-09-25T02:19:12.927Z,27.48
2022-09-25T02:22:09.617Z,22.20
2022-09-25T02:25:04.714Z,25.52
2022-09-25T02:27:53.819Z,24.15
2022-09-25T02:30:43.461Z,22.88
2022-09-25T02:33:32.764Z,21.63
2022-09-25T02:36:24.118Z,23.38
2022-09-25T02:39:17.430Z,22.77
2022-09-25T02:42:21.484Z,23.52
2022-09-25T02:45:25.430Z,21.60
2022-09-25T02:48:22.022Z,23.02
2022-09-25T02:51:17.904Z,24.02
2022-09-25T02:54:13.090Z,19.77
2022-09-25T02:57:09.434Z,20.35
2022-09-25T03:00:02.894Z,19.90
2022-09-25T03:02:56.577Z,19.38
2022-09-25T03:05:46.285Z,21.20
2022-09-25T03:08:42.017Z,21.38
2022-09-25T03:11:31.352Z,21.50
2022-09-25T03:14:22.005Z,21.70
2022-09-25T03:17:12.577Z,19.48
2022-09-25T03:20:02.634Z,18.60
2022-09-25T03:22:51.778Z,20.10
2022-09-25T03:25:42.772Z,20.02
2022-09-25T03:28:35.354Z,18.95
2022-09-25T03:31:26.131Z,19.83
2022-09-25T03:34:17.726Z,20.83
2022-09-25T03:37:06.751Z,19.13
2022-09-25T03:39:55.766Z,21.30
2022-09-25T03:42:44.532Z,23.08
2022-09-25T03:45:33.949Z,22.80
2022-09-25T03:48:24.465Z,21.85
2022-09-25T03:51:14.158Z,22.77
2022-09-25T03:54:04.423Z,21.48
2022-09-25T03:56:53.715Z,21.63
2022-09-25T03:59:42.556Z,24.45
2022-09-25T04:02:31.637Z,20.88
2022-09-25T04:05:21.891Z,22.67
2022-09-25T04:08:11.429Z,22.45
2022-09-25T04:11:00.958Z,23.38
2022-09-25T04:13:50.092Z,27.92
2022-09-25T04:16:39.765Z,23.50
2022-09-25T04:19:28.770Z,22.08
2022-09-25T04:22:19.456Z,22.15
2022-09-25T04:25:09.913Z,21.27
2022-09-25T04:27:59.205Z,28.30
2022-09-25T04:30:48.731Z,20.40
2022-09-25T04:33:48.799Z,22.70
2022-09-25T04:36:37.857Z,21.25
2022-09-25T04:39:28.731Z,21.52
2022-09-25T04:42:17.492Z,22.13
2022-09-25T04:45:07.331Z,23.77
2022-09-25T04:47:56.244Z,21.45
2022-09-25T04:50:51.714Z,20.35
2022-09-25T04:53:40.893Z,19.73
2022-09-25T04:56:31.362Z,20.38
2022-09-25T04:59:20.460Z,23.30
2022-09-25T05:02:09.411Z,20.02
2022-09-25T05:04:58.658Z,21.27
2022-09-25T05:07:54.177Z,20.23
2022-09-25T05:10:46.172Z,19.85
2022-09-25T05:13:36.526Z,19.05
2022-09-25T05:16:25.933Z,23.85
2022-09-25T05:19:15.201Z,19.25
2022-09-25T05:22:04.210Z,20.35
2022-09-25T05:24:58.821Z,19.65
2022-09-25T05:27:48.978Z,22.77
2022-09-25T05:30:40.035Z,21.25
2022-09-25T05:33:29.151Z,21.60
2022-09-25T05:36:18.947Z,21.00
2022-09-25T05:39:10.961Z,21.83
2022-09-25T05:42:04.059Z,25.27
2022-09-25T05:44:53.004Z,20.52
2022-09-25T05:47:43.590Z,22.73
2022-09-25T05:50:33.683Z,20.48
2022-09-25T05:53:23.522Z,20.05
2022-09-25T05:56:13.662Z,22.85
2022-09-25T05:59:02.571Z,24.40
2022-09-25T06:01:52.547Z,21.13
2022-09-25T06:04:43.145Z,23.27
2022-09-25T06:07:32.469Z,21.92
2022-09-25T06:10:21.982Z,25.23
2022-09-25T06:13:11.036Z,26.58
2022-09-25T06:16:00.565Z,23.73
2022-09-25T06:18:51.132Z,24.58
2022-09-25T06:21:42.502Z,22.58
2022-09-25T06:24:31.236Z,24.55
2022-09-25T06:27:20.377Z,24.40
2022-09-25T06:30:09.939Z,24.83
2022-09-25T06:33:00.162Z,22.98
2022-09-25T06:35:50.282Z,24.45
2022-09-25T06:38:40.503Z,23.02
2022-09-25T06:41:29.838Z,24.70
2022-09-25T06:44:19.045Z,22.42
2022-09-25T06:47:08.211Z,22.60
2022-09-25T06:49:58.227Z,23.55
2022-09-25T06:52:46.670Z,23.83
2022-09-25T06:55:37.757Z,23.20
2022-09-25T06:58:27.424Z,21.50
2022-09-25T07:01:16.772Z,20.45
2022-09-25T07:04:05.218Z,24.90
2022-09-25T07:06:58.795Z,29.85
2022-09-25T07:09:48.573Z,23.90
2022-09-25T07:12:41.682Z,22.17
2022-09-25T07:15:31.328Z,22.75
2022-09-25T07:18:20.265Z,23.92
2022-09-25T07:21:10.721Z,20.75
2022-09-25T07:24:00.092Z,23.83
2022-09-25T07:26:49.123Z,21.75
2022-09-25T07:29:40.699Z,23.25
2022-09-25T07:32:29.880Z,22.92
2022-09-25T07:35:19.026Z,23.23
2022-09-25T07:38:07.891Z,24.25
2022-09-25T07:40:57.720Z,24.08
2022-09-25T07:43:47.228Z,22.13
2022-09-25T07:46:43.040Z,24.10
2022-09-25T07:49:32.454Z,21.60
2022-09-25T07:52:22.140Z,25.20
2022-09-25T07:55:11.430Z,21.98
2022-09-25T07:58:00.701Z,25.42
2022-09-25T08:00:49.432Z,21.85
2022-09-25T08:03:40.529Z,25.02
2022-09-25T08:06:30.110Z,24.63
2022-09-25T08:09:19.318Z,24.05
2022-09-25T08:12:13.209Z,21.10
2022-09-25T08:15:01.999Z,24.58
2022-09-25T08:17:51.541Z,24.13
2022-09-25T08:20:42.379Z,25.55
2022-09-25T08:23:31.475Z,26.40
2022-09-25T08:26:22.246Z,21.25
2022-09-25T08:29:11.561Z,20.73
2022-09-25T08:32:01.042Z,23.88
2022-09-25T08:34:50.460Z,20.92
2022-09-25T08:37:43.350Z,21.02
2022-09-25T08:40:34.358Z,19.27
2022-09-25T08:43:26.464Z,22.67
2022-09-25T08:46:39.790Z,18.27
2022-09-25T08:49:34.596Z,20.88
2022-09-25T08:52:23.866Z,18.73
2022-09-25T08:55:18.661Z,20.52
2022-09-25T08:58:10.863Z,20.02
2022-09-25T09:01:02.081Z,20.33
2022-09-25T09:03:57.849Z,20.00
2022-09-25T09:07:08.099Z,19.60
2022-09-25T09:10:03.909Z,20.60
2022-09-25T09:12:59.257Z,24.95
2022-09-25T09:15:51.389Z,21.23
2022-09-25T09:18:42.500Z,23.70
2022-09-25T09:21:36.335Z,18.52
2022-09-25T09:24:31.655Z,18.00
2022-09-25T09:27:30.478Z,20.15
2022-09-25T09:30:24.237Z,20.35
2022-09-25T09:33:27.387Z,19.95
2022-09-25T09:36:24.266Z,18.20
2022-09-25T09:39:29.342Z,17.65
2022-09-25T09:42:26.099Z,21.67
2022-09-25T09:45:22.537Z,20.33
2022-09-25T09:48:17.555Z,19.38
2022-09-25T09:51:12.414Z,20.05
2022-09-25T09:54:05.488Z,22.70
2022-09-25T09:56:56.334Z,20.98
2022-09-25T09:59:50.722Z,17.15
2022-09-25T10:02:45.135Z,17.70
2022-09-25T10:05:39.507Z,15.98
2022-09-25T10:08:28.844Z,19.73
2022-09-25T10:11:19.767Z,17.55
2022-09-25T10:14:16.723Z,17.13
2022-09-25T10:17:06.603Z,18.38
2022-09-25T10:19:59.878Z,19.73
2022-09-25T10:22:50.769Z,20.15
2022-09-25T10:25:41.393Z,20.17
2022-09-25T10:28:32.723Z,20.73
2022-09-25T10:31:22.652Z,20.13
2022-09-25T10:34:22.594Z,21.85
2022-09-25T10:37:22.390Z,24.38
2022-09-25T10:40:27.723Z,22.67
2022-09-25T10:43:20.743Z,18.80
2022-09-25T10:46:14.556Z,18.10
2022-09-25T10:49:33.016Z,18.60
2022-09-25T10:52:24.282Z,16.02
2022-09-25T10:55:22.338Z,20.20
2022-09-25T10:58:21.448Z,16.02
2022-09-25T11:01:13.716Z,18.80
2022-09-25T11:04:06.145Z,18.88
2022-09-25T11:06:58.190Z,19.10
2022-09-25T11:09:49.201Z,19.20
2022-09-25T11:12:39.016Z,17.73
2022-09-25T11:15:29.890Z,19.38
2022-09-25T11:18:38.130Z,14.90
2022-09-25T11:21:34.838Z,15.50
2022-09-25T11:24:29.782Z,16.55
2022-09-25T11:27:25.986Z,17.67
2022-09-25T11:30:19.060Z,16.20
2022-09-25T11:33:18.345Z,15.65
2022-09-25T11:36:11.342Z,16.70
2022-09-25T11:39:22.115Z,17.85
2022-09-25T11:42:19.231Z,17.17
2022-09-25T11:45:18.244Z,17.52
2022-09-25T11:48:14.587Z,16.73
2022-09-25T11:51:13.090Z,15.25
2022-09-25T11:54:32.745Z,13.60
2022-09-25T11:57:34.238Z,13.43
2022-09-25T12:00:31.745Z,14.63
2022-09-25T12:03:35.754Z,15.57
2022-09-25T12:06:49.367Z,14.18
2022-09-25T12:09:51.307Z,14.40
2022-09-25T12:12:47.965Z,15.90
2022-09-25T12:15:55.585Z,16.75
2022-09-25T12:19:12.643Z,16.33
2022-09-25T12:22:09.320Z,14.00
2022-09-25T12:25:05.043Z,15.45
2022-09-25T12:28:01.500Z,16.73
2022-09-25T12:31:05.568Z,14.32
2022-09-25T12:34:07.827Z,15.20
2022-09-25T12:37:05.513Z,16.38
2022-09-25T12:39:58.841Z,16.10
2022-09-25T12:42:55.612Z,14.18
2022-09-25T12:45:50.236Z,14.73
2022-09-25T12:48:46.446Z,14.70
2022-09-25T12:51:41.443Z,15.25
2022-09-25T14:00:53.838Z,9.48
2022-09-25T14:03:46.764Z,10.73
2022-09-25T14:06:39.242Z,10.57
2022-09-25T14:09:32.073Z,9.10
2022-09-25T14:12:42.962Z,11.65
2022-09-25T14:15:35.595Z,10.95
2022-09-25T14:18:33.191Z,9.77
2022-09-25T14:21:23.926Z,11.80
2022-09-25T14:24:20.459Z,13.18
2022-09-25T14:27:23.800Z,11.40
2022-09-25T14:30:16.099Z,9.95
2022-09-25T14:33:24.249Z,11.13
2022-09-25T14:36:23.378Z,10.10
2022-09-25T14:39:34.512Z,11.43
2022-09-25T14:42:54.391Z,10.52
2022-09-25T14:46:07.576Z,12.07
2022-09-25T14:49:03.397Z,12.80
2022-09-25T14:51:54.843Z,9.40
2022-09-25T14:54:47.924Z,9.68
2022-09-25T14:57:39.896Z,8.82
2022-09-25T15:00:29.270Z,9.50
2022-09-25T15:03:20.947Z,8.23
2022-09-25T15:06:13.950Z,9.32
2022-09-25T15:09:28.460Z,7.70
2022-09-25T15:12:25.049Z,7.43
2022-09-25T15:15:16.998Z,8.73
2022-09-25T15:18:08.618Z,7.65
2022-09-25T15:20:57.499Z,6.78
2022-09-25T15:23:47.160Z,7.20
2022-09-25T15:26:42.953Z,7.07
2022-09-25T15:29:37.309Z,7.25
2022-09-25T15:32:28.757Z,6.30
2022-09-25T15:35:20.276Z,6.20
2022-09-25T15:38:13.685Z,4.90
2022-09-25T15:41:03.530Z,4.55
2022-09-25T15:43:53.780Z,4.95
2022-09-25T15:46:46.660Z,4.53
2022-09-25T15:49:40.543Z,5.15
2022-09-25T15:52:34.453Z,5.05
2022-09-25T15:55:24.457Z,4.80
2022-09-25T15:58:16.914Z,5.40
2022-09-25T16:01:23.532Z,5.97
2022-09-25T16:04:38.845Z,6.88
2022-09-25T16:07:30.827Z,5.85
2022-09-25T16:10:37.626Z,5.88
2022-09-25T16:13:27.282Z,6.55
2022-09-25T16:16:29.589Z,5.45
2022-09-25T16:19:33.724Z,4.88
2022-09-25T16:22:25.205Z,4.97
2022-09-25T16:25:21.424Z,5.18
2022-09-25T16:28:16.206Z,4.55
2022-09-25T16:31:08.175Z,6.35
2022-09-25T16:34:00.814Z,5.00
2022-09-25T16:36:51.844Z,5.13
2022-09-25T16:39:41.599Z,6.35
2022-09-25T16:42:40.379Z,5.65
2022-09-25T16:45:33.605Z,6.88
2022-09-25T16:48:37.215Z,7.22
2022-09-25T16:51:28.914Z,6.43
2022-09-25T16:54:21.759Z,6.05
2022-09-25T16:57:17.507Z,4.72
2022-09-25T17:00:08.117Z,6.95
2022-09-25T17:02:57.472Z,6.60
2022-09-25T17:05:46.462Z,5.55
2022-09-25T17:08:35.812Z,6.03
2022-09-25T17:11:26.535Z,5.57
2022-09-25T17:14:24.323Z,6.13
2022-09-25T17:17:16.720Z,5.18
2022-09-25T17:20:06.542Z,5.30
2022-09-25T17:22:56.632Z,7.32
2022-09-25T17:25:49.091Z,5.53
2022-09-25T17:28:39.522Z,7.07
2022-09-25T17:31:29.126Z,9.75
2022-09-25T17:34:19.457Z,9.63
2022-09-25T17:37:08.499Z,8.30
2022-09-25T17:39:57.657Z,9.02
2022-09-25T17:42:46.910Z,9.93
2022-09-25T17:45:43.444Z,11.13
2022-09-25T17:48:35.158Z,10.02
2022-09-25T17:51:27.985Z,8.98
2022-09-25T17:54:22.498Z,8.63
2022-09-25T17:57:12.628Z,13.10
2022-09-25T18:00:01.763Z,13.40
2022-09-25T18:02:54.551Z,9.63
2022-09-25T18:05:44.777Z,13.95
2022-09-25T18:08:33.951Z,12.75
2022-09-25T18:11:23.422Z,12.18
2022-09-25T18:14:13.732Z,11.25
2022-09-25T18:17:02.479Z,9.57
2022-09-25T18:20:10.842Z,10.13
2022-09-25T18:22:59.727Z,11.45
2022-09-25T18:25:49.502Z,10.95
2022-09-25T18:28:41.510Z,8.90
2022-09-25T18:31:32.639Z,11.10
2022-09-25T18:34:28.564Z,10.70
2022-09-25T18:37:21.467Z,8.45
2022-09-25T18:40:15.083Z,10.43
2022-09-25T18:43:04.422Z,11.23
2022-09-25T18:45:53.491Z,9.48
2022-09-25T18:48:50.874Z,8.77
2022-09-25T18:51:41.253Z,11.88
2022-09-25T18:54:32.599Z,10.05
2022-09-25T18:57:22.780Z,10.43
2022-09-25T19:00:19.029Z,9.32
2022-09-25T19:03:17.778Z,11.70
2022-09-25T19:06:07.355Z,10.57
2022-09-25T19:08:58.412Z,13.73
2022-09-25T19:11:56.069Z,12.02
2022-09-25T19:14:48.790Z,9.25
2022-09-25T19:17:40.360Z,12.63
2022-09-25T19:20:29.216Z,12.60
2022-09-25T19:23:21.027Z,9.98
2022-09-25T19:26:12.469Z,14.82
2022-09-25T19:29:03.680Z,11.45
2022-09-25T19:31:58.817Z,11.93
2022-09-25T19:34:49.311Z,11.90
2022-09-25T19:37:42.339Z,13.23
2022-09-25T19:40:41.981Z,11.75
2022-09-25T19:43:35.628Z,11.35
2022-09-25T19:46:32.294Z,10.85
2022-09-25T19:49:23.421Z,11.13
2022-09-25T19:52:20.560Z,10.07
2022-09-25T19:55:10.885Z,13.43
2022-09-25T19:58:00.697Z,11.60
2022-09-25T20:00:53.773Z,9.52
2022-09-25T20:03:47.935Z,12.68
2022-09-25T20:06:44.329Z,11.32
2022-09-25T20:09:40.178Z,9.60
2022-09-25T20:12:29.347Z,11.77
2022-09-25T20:15:19.757Z,13.25
2022-09-25T20:18:11.516Z,12.88
2022-09-25T20:21:06.680Z,14.35
2022-09-25T20:23:59.565Z,13.90
2022-09-25T20:26:52.022Z,16.42
2022-09-25T20:29:44.772Z,15.07
2022-09-25T20:32:35.326Z,14.32
2022-09-25T20:35:27.824Z,13.10
2022-09-25T20:38:18.508Z,16.10
2022-09-25T20:41:11.469Z,14.73
2022-09-25T20:44:07.881Z,15.57
2022-09-25T20:46:59.708Z,15.52
2022-09-25T20:49:49.505Z,15.23
2022-09-25T20:52:40.930Z,14.43
2022-09-25T20:55:39.065Z,14.73
2022-09-25T20:58:30.674Z,17.10
2022-09-25T21:01:24.420Z,20.23
2022-09-25T21:04:21.121Z,16.15
2022-09-25T21:07:16.940Z,16.70
2022-09-25T21:10:09.521Z,16.13
2022-09-25T21:13:07.100Z,19.90
2022-09-25T21:15:55.703Z,17.20
2022-09-25T21:18:45.788Z,17.58
2022-09-25T21:21:37.532Z,18.80
2022-09-25T21:24:28.433Z,17.42
2022-09-25T21:27:19.364Z,15.07
2022-09-25T21:30:14.766Z,15.10
2022-09-25T21:33:07.616Z,16.73
2022-09-25T21:35:57.306Z,17.80
2022-09-25T21:38:46.460Z,14.45
2022-09-25T21:41:38.068Z,15.57
2022-09-25T21:44:27.959Z,16.15
2022-09-25T21:47:20.985Z,15.65
2022-09-25T21:50:10.791Z,16.40
2022-09-25T21:52:59.996Z,16.48
2022-09-25T21:55:48.974Z,16.83
2022-09-25T21:58:38.750Z,16.45
2022-09-25T22:01:29.836Z,17.40
2022-09-25T22:04:21.053Z,14.90
2022-09-25T22:07:10.407Z,16.00
2022-09-25T22:09:59.878Z,15.45
2022-09-25T22:12:48.877Z,18.63
2022-09-25T22:15:38.118Z,20.30
2022-09-25T22:18:27.352Z,22.95
2022-09-25T22:21:20.267Z,20.10
2022-09-25T22:24:09.679Z,18.38
2022-09-25T22:26:59.064Z,19.15
2022-09-25T22:29:48.953Z,18.75
2022-09-25T22:32:40.297Z,20.20
2022-09-25T22:35:29.680Z,18.00
2022-09-25T22:38:20.028Z,20.45
2022-09-25T22:41:11.362Z,21.63
2022-09-25T22:44:01.168Z,22.00
2022-09-25T22:46:50.607Z,18.23
2022-09-25T22:49:39.773Z,16.50
2022-09-25T22:52:29.103Z,18.38
2022-09-25T22:55:19.527Z,19.30
2022-09-25T22:58:09.300Z,17.80
